Time;durP1;ratioP1;P1;durP2;ratioP2;P2;SDS_P1;SDS_P2;PMS_P1;PMS_P2;Temp;Humidity;BMP_temperature;BMP_pressure;BME280_temperature;BME280_humidity;BME280_pressure;Samples;Min_cycle;Max_cycle;Signal;HPM_P1;HPM_P2
2021/07/16 15:58:55;;;;;;;6.60;5.97;;;;;;;27.05;53.46;100634.69;5016747;27;20823;-80
2021/07/16 16:01:20;;;;;;;7.83;6.00;;;;;;;26.96;53.46;100634.03;5040958;28;20414;-79
2021/07/16 16:03:45;;;;;;;17.15;7.10;;;;;;;26.90;54.02;100640.19;5029424;28;20410;-78
2021/07/16 16:06:11;;;;;;;6.77;6.00;;;;;;;27.01;53.16;100630.19;5043055;28;20419;-77
2021/07/16 16:08:37;;;;;;;7.20;5.97;;;;;;;27.07;52.49;100634.38;5040627;28;20886;-79
2021/07/16 16:11:04;;;;;;;13.93;6.70;;;;;;;27.19;52.78;100645.44;5046437;28;20410;-79
2021/07/16 16:13:30;;;;;;;19.42;7.50;;;;;;;27.16;53.35;100644.19;5048499;28;20897;-77
2021/07/16 16:15:55;;;;;;;13.70;6.40;;;;;;;27.05;53.17;100645.81;5036424;28;20444;-77
2021/07/16 16:18:20;;;;;;;38.27;8.60;;;;;;;26.94;52.84;100644.66;5039068;28;20974;-77
2021/07/16 16:20:46;;;;;;;13.93;5.87;;;;;;;26.94;53.04;100647.44;5039431;28;20928;-77
2021/07/16 16:23:11;;;;;;;13.43;6.60;;;;;;;27.06;53.06;100647.44;5033517;28;20421;-80
2021/07/16 16:25:36;;;;;;;8.63;6.30;;;;;;;27.01;53.07;100647.69;5042164;28;20418;-79
2021/07/16 16:28:02;;;;;;;11.07;6.27;;;;;;;26.89;53.08;100658.00;5021451;28;20898;-79
2021/07/16 16:30:28;;;;;;;8.95;6.40;;;;;;;26.69;53.33;100652.22;5045119;28;20425;-80
2021/07/16 16:32:53;;;;;;;6.73;6.00;;;;;;;26.71;53.87;100662.97;5042614;28;20446;-78
2021/07/16 16:35:18;;;;;;;7.07;6.37;;;;;;;26.69;53.05;100656.97;5040339;28;20833;-78
2021/07/16 16:37:43;;;;;;;6.57;6.07;;;;;;;26.55;53.21;100653.69;5045408;28;20480;-81
2021/07/16 16:40:11;;;;;;;8.77;6.27;;;;;;;26.38;53.70;100654.72;5029528;28;20492;-79
2021/07/16 16:42:37;;;;;;;9.45;6.30;;;;;;;26.35;53.82;100649.06;5021634;28;20808;-79
2021/07/16 16:45:05;;;;;;;6.22;5.72;;;;;;;26.23;54.06;100649.88;5041536;28;20569;-81
2021/07/16 16:47:30;;;;;;;10.73;6.45;;;;;;;26.17;54.11;100648.47;5025535;28;20825;-80
2021/07/16 16:49:55;;;;;;;6.82;6.22;;;;;;;26.30;54.42;100647.34;5037758;28;20901;-81
2021/07/16 16:52:21;;;;;;;6.63;5.97;;;;;;;26.41;53.89;100647.69;5044710;28;20470;-79
2021/07/16 16:54:46;;;;;;;9.10;6.28;;;;;;;26.41;54.31;100650.47;5044703;28;20781;-79
2021/07/16 16:57:12;;;;;;;7.03;6.30;;;;;;;26.29;54.00;100651.25;5042059;28;20422;-80
2021/07/16 16:59:38;;;;;;;6.17;5.67;;;;;;;26.25;54.48;100661.44;5023349;28;20829;-80
2021/07/16 17:02:04;;;;;;;6.18;5.20;;;;;;;26.19;54.84;100660.03;5044668;28;20893;-80
2021/07/16 17:04:29;;;;;;;7.18;6.20;;;;;;;26.22;55.03;100662.13;5031590;28;20446;-80
2021/07/16 17:06:54;;;;;;;6.30;5.70;;;;;;;26.09;54.80;100661.25;5042720;28;20742;-81
2021/07/16 17:09:19;;;;;;;6.67;6.07;;;;;;;26.01;55.08;100664.16;5036798;28;20407;-79
2021/07/16 17:11:45;;;;;;;12.87;6.70;;;;;;;25.88;55.35;100668.03;5032629;28;20414;-80
2021/07/16 17:14:12;;;;;;;15.77;6.90;;;;;;;25.77;55.22;100667.66;5028351;28;20419;-78
2021/07/16 17:16:37;;;;;;;7.30;6.70;;;;;;;25.66;55.47;100667.25;5030579;28;20411;-79
2021/07/16 17:19:02;;;;;;;7.67;6.63;;;;;;;25.42;56.27;100658.00;5018665;28;20419;-79
2021/07/16 17:21:27;;;;;;;6.67;6.17;;;;;;;25.48;56.19;100665.75;5003910;28;20406;-79
2021/07/16 17:23:53;;;;;;;12.37;6.70;;;;;;;25.63;56.84;100659.59;5007907;28;20420;-79
2021/07/16 17:26:18;;;;;;;7.27;6.63;;;;;;;25.62;56.35;100662.75;5023195;28;20892;-79
2021/07/16 17:28:43;;;;;;;7.60;6.97;;;;;;;25.63;56.44;100656.84;4985984;28;20413;-79
2021/07/16 17:31:09;;;;;;;7.25;6.55;;;;;;;25.61;56.27;100664.69;4998391;28;20468;-79
2021/07/16 17:33:34;;;;;;;10.23;7.82;;;;;;;25.57;56.57;100663.75;5002389;28;20498;-79
2021/07/16 17:35:59;;;;;;;7.95;7.25;;;;;;;25.48;56.71;100654.66;5004063;28;21032;-78
2021/07/16 17:38:26;;;;;;;8.70;7.70;;;;;;;25.34;56.57;100658.84;4999272;28;20433;-79
2021/07/16 17:40:52;;;;;;;7.68;6.97;;;;;;;25.28;56.70;100661.84;5001469;28;20425;-78
2021/07/16 17:43:19;;;;;;;8.33;7.53;;;;;;;25.22;56.94;100665.16;5002877;28;20418;-78
2021/07/16 17:45:45;;;;;;;8.10;6.93;;;;;;;25.15;57.29;100671.25;5005710;28;20433;-79
2021/07/16 17:48:10;;;;;;;10.50;7.03;;;;;;;25.09;57.12;100666.22;5005051;28;20616;-79
2021/07/16 17:50:36;;;;;;;7.90;7.30;;;;;;;25.11;58.04;100667.50;5019086;28;20413;-79
2021/07/16 17:53:02;;;;;;;8.40;7.60;;;;;;;25.20;57.88;100670.22;4998318;28;20555;-79
2021/07/16 17:55:27;;;;;;;8.20;7.50;;;;;;;25.23;57.29;100669.53;5030706;28;20410;-78
2021/07/16 17:57:53;;;;;;;10.73;7.63;;;;;;;25.25;57.60;100664.47;5032112;28;20510;-79
2021/07/16 18:00:22;;;;;;;9.13;8.23;;;;;;;25.21;57.80;100675.44;5020931;28;20414;-78
2021/07/16 18:02:47;;;;;;;8.43;7.73;;;;;;;25.22;57.32;100671.53;5021962;28;20387;-79
2021/07/16 18:05:13;;;;;;;8.60;7.60;;;;;;;25.17;57.35;100690.31;5021003;28;20409;-79
2021/07/16 18:07:41;;;;;;;9.45;8.55;;;;;;;25.07;57.33;100685.97;5030261;28;20437;-78
2021/07/16 18:10:07;;;;;;;8.98;7.95;;;;;;;25.05;58.00;100682.72;5022540;28;20419;-78
2021/07/16 18:12:33;;;;;;;9.27;7.80;;;;;;;24.99;57.62;100683.25;5005844;28;20922;-79
2021/07/16 18:14:59;;;;;;;8.60;7.55;;;;;;;24.93;57.89;100688.16;5006219;28;20529;-79
2021/07/16 18:17:24;;;;;;;8.80;8.10;;;;;;;24.82;58.34;100694.41;5002105;28;20427;-79
2021/07/16 18:19:49;;;;;;;11.40;7.37;;;;;;;24.72;58.23;100692.84;4982471;28;20420;-79
2021/07/16 18:22:15;;;;;;;8.93;7.43;;;;;;;24.59;58.47;100694.69;5000887;28;20449;-78
2021/07/16 18:24:41;;;;;;;8.40;7.60;;;;;;;24.42;58.21;100691.16;5000857;28;20414;-78
2021/07/16 18:27:07;;;;;;;11.33;7.80;;;;;;;24.28;58.56;100697.72;5002668;28;20442;-79
2021/07/16 18:29:32;;;;;;;10.00;8.88;;;;;;;24.12;58.95;100699.41;5003034;28;20415;-79
2021/07/16 18:31:57;;;;;;;9.23;8.37;;;;;;;24.10;59.48;100709.16;4998241;28;20511;-79
2021/07/16 18:34:23;;;;;;;9.53;7.67;;;;;;;24.07;59.26;100705.06;4999656;28;20403;-79
2021/07/16 18:36:49;;;;;;;8.07;7.27;;;;;;;24.01;59.53;100711.09;5000593;28;20894;-79
2021/07/16 18:39:15;;;;;;;8.70;7.90;;;;;;;23.95;59.18;100706.88;5003537;28;20403;-79
2021/07/16 18:41:41;;;;;;;8.45;7.40;;;;;;;23.91;59.74;100715.03;5000100;28;21033;-79
2021/07/16 18:44:07;;;;;;;7.70;7.10;;;;;;;23.82;59.73;100721.72;5005552;28;20436;-79
2021/07/16 18:46:32;;;;;;;7.93;7.13;;;;;;;23.74;59.61;100726.94;5002425;28;20415;-79
2021/07/16 18:48:59;;;;;;;9.67;7.50;;;;;;;23.70;59.96;100725.97;5010072;28;20417;-79
2021/07/16 18:51:26;;;;;;;9.53;8.00;;;;;;;23.66;60.31;100735.25;5003077;28;20540;-79
2021/07/16 18:53:51;;;;;;;8.40;7.55;;;;;;;23.67;60.66;100726.63;4985702;28;20426;-80
2021/07/16 18:56:16;;;;;;;8.17;7.40;;;;;;;23.66;60.34;100733.28;5006158;28;20426;-79
2021/07/16 18:58:42;;;;;;;7.77;7.07;;;;;;;23.60;60.35;100731.84;5004992;28;20894;-78
2021/07/16 19:01:07;;;;;;;7.63;6.93;;;;;;;23.53;60.33;100741.75;4986706;28;20505;-79
2021/07/16 19:03:32;;;;;;;7.47;6.90;;;;;;;23.47;60.08;100740.28;4998331;28;20415;-79
2021/07/16 19:05:57;;;;;;;8.40;7.03;;;;;;;23.45;60.47;100748.06;4998864;28;20713;-79
2021/07/16 19:08:23;;;;;;;7.87;7.13;;;;;;;23.45;60.94;100739.78;4997789;28;20439;-78
2021/07/16 19:10:49;;;;;;;7.50;6.93;;;;;;;23.41;60.86;100747.94;4999629;28;20749;-79
2021/07/16 19:13:15;;;;;;;7.32;6.60;;;;;;;23.35;60.75;100748.38;5000458;28;20428;-81
2021/07/16 19:15:40;;;;;;;7.97;7.17;;;;;;;23.34;60.99;100750.31;5006237;28;20457;-79
2021/07/16 19:18:05;;;;;;;8.00;7.30;;;;;;;23.26;60.58;100757.47;5007239;28;20429;-77
2021/07/16 19:20:32;;;;;;;7.93;7.33;;;;;;;23.21;60.87;100765.91;5002297;28;20970;-76
2021/07/16 19:22:58;;;;;;;8.50;7.68;;;;;;;23.14;61.08;100764.75;5005469;28;21083;-76
2021/07/16 19:25:24;;;;;;;8.37;7.67;;;;;;;23.15;61.11;100760.84;5001276;28;20561;-76
2021/07/16 19:27:50;;;;;;;7.68;6.90;;;;;;;23.12;60.96;100773.34;5000095;28;20477;-76
2021/07/16 19:30:16;;;;;;;8.05;7.35;;;;;;;23.09;61.26;100776.75;5000555;28;20997;-76
2021/07/16 19:32:41;;;;;;;7.85;7.18;;;;;;;23.08;61.97;100796.44;4998791;28;20463;-77
2021/07/16 19:35:07;;;;;;;8.02;7.38;;;;;;;23.07;61.65;100803.91;5003544;28;20608;-76
2021/07/16 19:37:33;;;;;;;11.30;7.68;;;;;;;23.03;61.51;100808.44;4999734;28;20445;-78
2021/07/16 19:39:58;;;;;;;9.67;8.23;;;;;;;23.02;62.11;100808.78;5015899;28;20865;-78
2021/07/16 19:42:24;;;;;;;9.53;8.53;;;;;;;23.02;62.17;100814.31;4998561;28;20443;-79
2021/07/16 19:44:51;;;;;;;8.23;7.45;;;;;;;23.00;62.12;100817.38;5000452;28;20897;-79
2021/07/16 19:47:18;;;;;;;11.95;9.38;;;;;;;22.97;62.17;100823.56;5001366;28;20793;-80
2021/07/16 19:49:43;;;;;;;12.40;8.10;;;;;;;22.85;61.74;100820.59;5006785;28;20418;-79
2021/07/16 19:52:08;;;;;;;10.53;8.10;;;;;;;22.80;61.76;100825.41;5003630;28;20428;-79
2021/07/16 19:54:34;;;;;;;9.52;8.60;;;;;;;22.74;61.90;100833.84;5003843;28;20496;-79
2021/07/16 19:56:59;;;;;;;9.33;8.30;;;;;;;22.72;61.96;100836.09;4980401;28;20499;-79
2021/07/16 19:59:24;;;;;;;9.47;8.67;;;;;;;22.72;62.44;100838.06;5004822;28;20504;-79
2021/07/16 20:01:50;;;;;;;14.13;9.40;;;;;;;22.72;62.63;100846.34;5004338;28;20423;-79
2021/07/16 20:04:15;;;;;;;9.93;9.03;;;;;;;22.72;62.53;100860.16;5006672;28;20419;-79
2021/07/16 20:06:40;;;;;;;10.30;9.30;;;;;;;22.66;62.77;100856.69;4989912;28;20473;-79
2021/07/16 20:09:05;;;;;;;10.43;9.53;;;;;;;22.62;62.53;100860.41;5009225;28;20413;-76
2021/07/16 20:11:31;;;;;;;10.10;9.20;;;;;;;22.61;63.02;100867.03;4999152;28;20465;-79
2021/07/16 20:13:57;;;;;;;11.25;10.07;;;;;;;22.58;62.92;100871.25;5001710;28;20422;-77
2021/07/16 20:16:22;;;;;;;10.80;9.80;;;;;;;22.59;62.83;100878.41;5010860;28;20876;-77
2021/07/16 20:18:47;;;;;;;11.83;10.63;;;;;;;22.59;63.07;100875.63;5005592;28;20607;-77
2021/07/16 20:21:12;;;;;;;11.30;10.30;;;;;;;22.55;62.93;100871.91;5006675;28;20423;-77
2021/07/16 20:23:39;;;;;;;11.25;10.13;;;;;;;22.50;62.69;100874.75;4985451;28;20410;-77
2021/07/16 20:26:07;;;;;;;11.63;9.75;;;;;;;22.47;62.79;100880.09;5003560;28;20407;-77
2021/07/16 20:28:33;;;;;;;10.97;9.97;;;;;;;22.46;62.81;100873.75;5004616;28;20440;-77
2021/07/16 20:30:58;;;;;;;11.35;10.10;;;;;;;22.36;62.11;100874.00;5005016;28;20515;-77
2021/07/16 20:33:23;;;;;;;11.60;10.50;;;;;;;22.33;62.54;100884.88;5001147;28;20604;-77
2021/07/16 20:35:49;;;;;;;11.80;10.70;;;;;;;22.30;62.68;100883.53;5004567;28;21009;-77
2021/07/16 20:38:15;;;;;;;11.23;10.27;;;;;;;22.28;62.59;100887.75;5005721;28;20518;-77
2021/07/16 20:40:41;;;;;;;12.20;11.20;;;;;;;22.25;63.10;100889.19;5006817;28;20897;-77
2021/07/16 20:43:06;;;;;;;11.57;10.43;;;;;;;22.24;62.88;100884.78;5003410;28;20448;-77
2021/07/16 20:45:31;;;;;;;12.60;11.30;;;;;;;22.15;62.93;100898.53;5009071;28;20437;-77
2021/07/16 20:47:57;;;;;;;11.70;10.53;;;;;;;22.12;62.65;100901.09;5012224;28;20778;-77
2021/07/16 20:50:22;;;;;;;12.03;11.03;;;;;;;22.09;63.10;100905.31;5016625;28;20932;-77
2021/07/16 20:52:47;;;;;;;12.30;11.07;;;;;;;22.10;63.48;100906.09;5009101;28;20677;-77
2021/07/16 20:55:13;;;;;;;13.50;12.10;;;;;;;22.09;63.39;100907.25;5008388;28;22026;-77
2021/07/16 20:57:38;;;;;;;13.35;11.98;;;;;;;22.06;63.65;100910.63;5009953;28;20432;-77
2021/07/16 21:00:07;;;;;;;13.67;12.37;;;;;;;22.01;62.76;100910.72;4994261;28;20411;-77
2021/07/16 21:02:32;;;;;;;13.52;12.10;;;;;;;21.97;63.51;100915.22;5010743;28;20885;-77
2021/07/16 21:04:58;;;;;;;14.23;12.77;;;;;;;21.97;63.69;100916.03;5015371;28;20411;-77
2021/07/16 21:07:23;;;;;;;12.97;11.63;;;;;;;21.96;63.53;100922.72;5008425;28;20489;-77
2021/07/16 21:09:48;;;;;;;13.87;12.67;;;;;;;21.95;63.87;100909.22;5008841;28;20428;-77
2021/07/16 21:12:14;;;;;;;14.17;12.77;;;;;;;21.93;64.14;100915.03;5010187;28;20430;-77
2021/07/16 21:14:39;;;;;;;14.85;12.38;;;;;;;21.90;64.16;100912.09;5010157;28;20419;-77
2021/07/16 21:17:04;;;;;;;14.03;12.80;;;;;;;21.88;63.99;100914.28;5014155;28;20411;-77
2021/07/16 21:19:30;;;;;;;14.10;12.70;;;;;;;21.84;63.78;100924.31;5016889;28;20446;-78
2021/07/16 21:21:55;;;;;;;14.47;13.00;;;;;;;21.82;64.22;100926.56;5030353;28;20410;-77
2021/07/16 21:24:20;;;;;;;15.27;13.77;;;;;;;21.81;64.40;100924.94;5044733;28;20406;-77
2021/07/16 21:26:46;;;;;;;14.63;13.27;;;;;;;21.77;64.13;100924.72;5033192;28;20403;-78
2021/07/16 21:29:11;;;;;;;14.57;13.17;;;;;;;21.74;63.93;100930.88;5035147;28;20493;-78
2021/07/16 21:31:36;;;;;;;15.97;13.83;;;;;;;21.72;64.31;100938.63;5032371;28;20770;-78
2021/07/16 21:34:02;;;;;;;18.20;14.10;;;;;;;21.63;64.12;100941.31;5033635;28;20445;-78
2021/07/16 21:36:28;;;;;;;15.18;13.77;;;;;;;21.63;64.02;100944.06;5033524;28;20409;-79
2021/07/16 21:38:55;;;;;;;15.85;14.32;;;;;;;21.65;64.00;100943.75;5033504;28;20440;-78
2021/07/16 21:41:20;;;;;;;15.43;13.82;;;;;;;21.65;63.91;100938.22;5031239;28;20774;-79
2021/07/16 21:43:46;;;;;;;15.38;13.80;;;;;;;21.67;63.64;100942.31;5012535;28;20400;-78
2021/07/16 21:46:11;;;;;;;14.60;13.23;;;;;;;21.69;63.62;100945.59;5013793;28;20393;-78
2021/07/16 21:48:36;;;;;;;15.07;13.67;;;;;;;21.70;63.69;100949.19;5009822;28;20915;-78
2021/07/16 21:51:05;;;;;;;14.60;13.10;;;;;;;21.64;63.35;100945.69;5030772;28;20411;-77
2021/07/16 21:53:32;;;;;;;15.50;14.00;;;;;;;21.63;63.55;100949.59;5015207;28;20477;-77
2021/07/16 21:56:01;;;;;;;17.17;14.05;;;;;;;21.59;63.67;100953.25;5033268;28;20858;-78
2021/07/16 21:58:27;;;;;;;17.25;14.57;;;;;;;21.56;64.36;100949.16;5032822;28;20423;-77
2021/07/16 22:00:52;;;;;;;15.77;14.20;;;;;;;21.53;63.69;100948.97;5014442;28;20913;-77
2021/07/16 22:03:17;;;;;;;17.97;15.17;;;;;;;21.50;64.23;100947.66;5033332;28;20895;-77
2021/07/16 22:05:42;;;;;;;18.80;14.47;;;;;;;21.50;64.34;100952.34;5033028;28;20403;-77
2021/07/16 22:08:08;;;;;;;17.13;14.75;;;;;;;21.48;64.31;100949.88;5033256;28;20498;-77
2021/07/16 22:10:33;;;;;;;15.87;14.17;;;;;;;21.48;64.13;100951.81;5032086;28;20399;-78
2021/07/16 22:12:58;;;;;;;15.83;14.13;;;;;;;21.49;64.05;100948.75;5032829;28;20399;-77
2021/07/16 22:15:24;;;;;;;17.07;15.27;;;;;;;21.47;63.69;100947.44;5033011;28;20403;-77
2021/07/16 22:17:49;;;;;;;16.73;15.13;;;;;;;21.46;64.43;100935.59;5032944;28;20844;-77
2021/07/16 22:20:15;;;;;;;16.43;14.80;;;;;;;21.49;64.35;100940.47;5032108;28;20419;-77
2021/07/16 22:22:41;;;;;;;17.08;15.18;;;;;;;21.47;64.06;100936.41;5032830;28;20395;-77
2021/07/16 22:25:08;;;;;;;17.53;15.80;;;;;;;21.43;64.29;100933.44;5032573;28;20446;-78
2021/07/16 22:27:33;;;;;;;16.52;14.80;;;;;;;21.40;64.72;100939.56;5032625;28;20407;-78
2021/07/16 22:29:58;;;;;;;17.73;14.87;;;;;;;21.36;64.68;100951.50;5032559;28;20414;-78
2021/07/16 22:32:24;;;;;;;17.15;15.50;;;;;;;21.31;64.76;100952.41;5031722;28;20497;-77
2021/07/16 22:34:49;;;;;;;17.60;15.70;;;;;;;21.28;65.17;100949.44;5032764;28;20383;-77
2021/07/16 22:37:15;;;;;;;18.20;16.30;;;;;;;21.24;65.01;100942.91;5032089;28;20415;-77
2021/07/16 22:39:40;;;;;;;16.90;15.27;;;;;;;21.23;65.50;100952.28;5014532;28;20391;-77
2021/07/16 22:42:06;;;;;;;18.03;16.27;;;;;;;21.19;65.71;100952.09;5031537;28;20786;-77
2021/07/16 22:44:32;;;;;;;17.70;15.97;;;;;;;21.13;65.22;100945.84;5032507;28;20829;-77
2021/07/16 22:46:57;;;;;;;18.35;16.42;;;;;;;21.11;65.48;100953.59;5032653;28;20482;-77
2021/07/16 22:49:22;;;;;;;18.90;15.90;;;;;;;21.04;64.96;100952.34;5032185;28;20403;-77
2021/07/16 22:51:48;;;;;;;20.00;16.20;;;;;;;21.04;65.48;100953.13;5030115;28;20407;-77
2021/07/16 22:54:15;;;;;;;17.98;16.25;;;;;;;21.03;65.47;100950.69;5032331;28;20481;-78
2021/07/16 22:56:40;;;;;;;18.48;16.38;;;;;;;21.02;65.23;100958.13;5032145;28;20397;-77
2021/07/16 22:59:06;;;;;;;18.13;16.23;;;;;;;21.02;65.58;100952.63;5031916;28;20506;-78
2021/07/16 23:01:32;;;;;;;19.02;16.65;;;;;;;21.01;65.64;100950.19;5031069;28;20415;-77
2021/07/16 23:03:57;;;;;;;17.80;15.95;;;;;;;21.01;65.68;100947.44;5031254;28;20465;-77
2021/07/16 23:06:23;;;;;;;19.67;16.50;;;;;;;21.04;65.84;100949.59;5031270;28;20407;-77
2021/07/16 23:08:48;;;;;;;21.40;17.13;;;;;;;21.00;65.51;100954.06;5014475;28;20453;-78
2021/07/16 23:11:15;;;;;;;27.75;17.40;;;;;;;20.92;65.38;100949.22;5010116;28;20449;-77
2021/07/16 23:13:40;;;;;;;21.40;17.20;;;;;;;20.87;65.65;100946.56;5029237;28;20403;-77
2021/07/16 23:16:06;;;;;;;19.67;17.65;;;;;;;20.87;66.18;100939.13;5031872;28;20402;-77
2021/07/16 23:18:31;;;;;;;19.33;17.20;;;;;;;20.89;66.41;100939.63;5031773;28;20421;-77
2021/07/16 23:20:57;;;;;;;18.93;17.00;;;;;;;20.90;66.00;100934.94;5030696;28;20415;-77
2021/07/16 23:23:23;;;;;;;20.50;18.33;;;;;;;20.92;66.40;100938.19;5030211;28;20468;-78
2021/07/16 23:25:48;;;;;;;18.98;16.98;;;;;;;20.89;66.50;100939.63;5031847;28;20398;-77
2021/07/16 23:28:13;;;;;;;19.33;17.30;;;;;;;20.89;66.43;100956.16;5031660;28;20396;-77
2021/07/16 23:30:39;;;;;;;26.50;18.40;;;;;;;20.92;66.89;100949.22;5030317;28;20429;-77
2021/07/16 23:33:04;;;;;;;21.77;17.90;;;;;;;20.96;66.69;100958.53;5031776;28;20410;-77
2021/07/16 23:35:29;;;;;;;19.00;17.03;;;;;;;20.98;66.43;100959.03;5029298;28;20460;-77
2021/07/16 23:37:55;;;;;;;22.63;17.83;;;;;;;20.98;66.03;100962.59;5031644;28;20419;-77
2021/07/16 23:40:20;;;;;;;19.60;17.67;;;;;;;20.99;66.34;100966.19;5030901;28;20879;-78
2021/07/16 23:42:45;;;;;;;19.93;17.80;;;;;;;21.01;66.63;100962.00;5031309;28;20449;-78
2021/07/16 23:45:11;;;;;;;24.30;18.37;;;;;;;21.01;66.31;100964.75;5031565;28;20812;-77
2021/07/16 23:47:37;;;;;;;22.48;18.58;;;;;;;21.00;66.20;100960.38;5031362;28;20398;-77
2021/07/16 23:50:04;;;;;;;20.08;17.75;;;;;;;20.99;66.40;100963.44;5031474;28;20402;-77
2021/07/16 23:52:30;;;;;;;19.83;17.80;;;;;;;20.99;66.40;100958.75;5029947;28;20893;-77
2021/07/16 23:54:55;;;;;;;20.47;18.23;;;;;;;21.01;66.67;100969.47;5031358;28;20399;-77
2021/07/16 23:57:20;;;;;;;23.50;18.87;;;;;;;20.97;66.60;100971.19;5031205;28;20422;-77
2021/07/16 23:59:46;;;;;;;20.97;18.77;;;;;;;20.93;67.19;100967.41;5030944;28;20744;-77
